createdAt,value
2023-04-25T00:02:00.841Z,100008.63
2023-04-25T00:04:28.530Z,100000.31
2023-04-25T00:06:56.120Z,100005.75
2023-04-25T00:09:23.199Z,100005.63
2023-04-25T00:11:49.768Z,100007.13
2023-04-25T00:14:17.781Z,100023.56
2023-04-25T00:16:45.017Z,100018.59
2023-04-25T00:19:11.844Z,100021.69
2023-04-25T00:21:41.511Z,100015.69
2023-04-25T00:24:08.756Z,100024.19
2023-04-25T00:26:36.281Z,100023.50
2023-04-25T00:29:04.035Z,100028.59
2023-04-25T00:31:31.459Z,100036.84
2023-04-25T00:33:59.898Z,100027.19
2023-04-25T00:36:26.979Z,100026.13
2023-04-25T00:38:54.353Z,100025.97
2023-04-25T00:41:21.018Z,100027.59
2023-04-25T00:43:49.052Z,100023.50
2023-04-25T00:46:16.037Z,100032.06
2023-04-25T00:48:43.844Z,100032.41
2023-04-25T00:51:13.221Z,100037.78
2023-04-25T00:53:39.673Z,100037.00
2023-04-25T00:56:07.228Z,100041.09
2023-04-25T00:58:33.764Z,100036.75
2023-04-25T01:01:02.205Z,100030.66
2023-04-25T01:03:29.779Z,100035.78
2023-04-25T01:05:56.941Z,100034.56
2023-04-25T01:08:26.400Z,100027.94
2023-04-25T01:10:52.943Z,100036.28
2023-04-25T01:13:20.327Z,100030.72
2023-04-25T01:15:47.098Z,100035.25
2023-04-25T01:18:13.921Z,100034.81
2023-04-25T01:20:41.806Z,100041.44
2023-04-25T01:23:09.057Z,100043.94
2023-04-25T01:25:35.978Z,100045.94
2023-04-25T01:28:02.913Z,100045.03
2023-04-25T01:30:30.266Z,100053.91
2023-04-25T01:32:59.225Z,100053.09
2023-04-25T01:35:26.059Z,100047.44
2023-04-25T01:37:53.109Z,100061.88
2023-04-25T01:40:21.887Z,100057.00
2023-04-25T01:42:49.116Z,100068.09
2023-04-25T01:45:16.029Z,100066.78
2023-04-25T01:47:44.015Z,100062.50
2023-04-25T01:50:12.457Z,100056.97
2023-04-25T01:52:39.589Z,100061.47
2023-04-25T01:55:07.757Z,100075.63
2023-04-25T01:57:34.451Z,100077.09
2023-04-25T02:00:02.265Z,100076.44
2023-04-25T02:02:29.257Z,100070.66
2023-04-25T02:04:57.247Z,100075.34
2023-04-25T02:07:24.041Z,100077.25
2023-04-25T02:09:50.972Z,100079.75
2023-04-25T02:12:18.665Z,100081.38
2023-04-25T02:14:45.810Z,100084.06
2023-04-25T02:17:13.680Z,100079.72
2023-04-25T02:19:40.497Z,100088.63
2023-04-25T02:22:07.344Z,100091.53
2023-04-25T02:24:35.887Z,100091.63
2023-04-25T02:27:02.705Z,100098.31
2023-04-25T02:29:31.903Z,100097.63
2023-04-25T02:31:58.988Z,100099.78
2023-04-25T02:34:25.605Z,100101.69
2023-04-25T02:36:52.619Z,100099.28
2023-04-25T02:39:19.702Z,100094.13
2023-04-25T02:41:46.496Z,100094.38
2023-04-25T02:44:13.017Z,100096.06
2023-04-25T02:46:40.023Z,100099.59
2023-04-25T02:49:07.880Z,100103.41
2023-04-25T02:51:34.707Z,100104.81
2023-04-25T02:54:02.546Z,100106.06
2023-04-25T02:56:29.044Z,100105.22
2023-04-25T02:58:56.221Z,100114.41
2023-04-25T03:01:24.097Z,100112.00
2023-04-25T03:03:51.040Z,100113.19
2023-04-25T03:06:18.760Z,100109.19
2023-04-25T03:08:45.542Z,100106.31
2023-04-25T03:11:12.241Z,100116.84
2023-04-25T03:13:39.255Z,100115.34
2023-04-25T03:16:06.634Z,100125.50
2023-04-25T03:18:33.431Z,100120.34
2023-04-25T03:21:00.580Z,100116.09
2023-04-25T03:23:27.574Z,100125.84
2023-04-25T03:25:54.300Z,100120.97
2023-04-25T03:28:21.522Z,100119.22
2023-04-25T03:30:48.204Z,100122.53
2023-04-25T03:33:15.192Z,100128.97
2023-04-25T03:35:42.290Z,100127.19
2023-04-25T03:38:09.251Z,100132.53
2023-04-25T03:40:36.190Z,100133.16
2023-04-25T03:43:03.007Z,100132.59
2023-04-25T03:45:30.286Z,100141.94
2023-04-25T03:47:57.142Z,100143.50
2023-04-25T03:50:24.070Z,100144.09
2023-04-25T03:52:51.855Z,100143.44
2023-04-25T03:55:18.630Z,100139.53
2023-04-25T03:57:45.550Z,100145.13
2023-04-25T04:00:13.142Z,100153.00
2023-04-25T04:02:40.646Z,100157.00
2023-04-25T04:05:08.901Z,100152.78
2023-04-25T04:07:40.850Z,100155.91
2023-04-25T04:10:08.418Z,100156.53
2023-04-25T04:12:35.262Z,100159.97
2023-04-25T04:15:03.210Z,100159.66
2023-04-25T04:17:29.664Z,100157.41
2023-04-25T04:19:56.597Z,100155.88
2023-04-25T04:22:24.470Z,100164.53
2023-04-25T04:24:51.467Z,100162.16
2023-04-25T04:27:19.069Z,100171.47
2023-04-25T04:29:46.268Z,100172.34
2023-04-25T04:32:13.205Z,100172.97
2023-04-25T04:34:40.317Z,100170.59
2023-04-25T04:37:08.314Z,100182.56
2023-04-25T04:39:35.195Z,100173.72
2023-04-25T04:42:02.865Z,100171.50
2023-04-25T04:44:36.387Z,100183.69
2023-04-25T04:47:04.855Z,100188.34
2023-04-25T04:49:31.953Z,100193.56
2023-04-25T04:51:59.773Z,100190.66
2023-04-25T04:54:26.805Z,100202.19
2023-04-25T04:56:53.910Z,100200.31
2023-04-25T04:59:20.705Z,100199.41
2023-04-25T05:01:47.820Z,100207.53
2023-04-25T05:04:14.514Z,100208.84
2023-04-25T05:06:41.561Z,100186.75
2023-04-25T05:09:08.187Z,100174.00
2023-04-25T05:11:34.741Z,100198.94
2023-04-25T05:14:01.319Z,100206.44
2023-04-25T05:16:28.427Z,100215.25
2023-04-25T05:18:55.677Z,100219.28
2023-04-25T05:21:22.812Z,100219.19
2023-04-25T05:23:49.681Z,100228.34
2023-04-25T05:26:16.685Z,100226.56
2023-04-25T05:28:43.701Z,100229.25
2023-04-25T05:31:11.349Z,100228.81
2023-04-25T05:33:38.253Z,100229.25
2023-04-25T05:36:05.191Z,100244.88
2023-04-25T05:38:34.526Z,100258.69
2023-04-25T05:41:02.600Z,100266.44
2023-04-25T05:43:29.757Z,100279.94
2023-04-25T05:45:56.422Z,100272.88
2023-04-25T05:48:23.528Z,100268.47
2023-04-25T05:50:50.209Z,100260.16
2023-04-25T05:53:18.083Z,100255.19
2023-04-25T05:55:47.425Z,100258.78
2023-04-25T05:58:14.303Z,100256.13
2023-04-25T06:00:42.645Z,100260.72
2023-04-25T06:03:10.998Z,100253.72
2023-04-25T06:05:37.814Z,100252.91
2023-04-25T06:08:04.849Z,100255.69
2023-04-25T06:10:32.539Z,100260.91
2023-04-25T06:12:59.370Z,100259.97
2023-04-25T06:15:28.866Z,100259.00
2023-04-25T06:17:57.412Z,100261.56
2023-04-25T06:20:25.495Z,100250.84
2023-04-25T06:22:53.705Z,100260.81
2023-04-25T06:25:22.352Z,100262.31
2023-04-25T06:27:49.465Z,100269.84
2023-04-25T06:30:17.584Z,100267.69
2023-04-25T06:32:44.358Z,100274.63
2023-04-25T06:35:12.521Z,100265.03
2023-04-25T06:37:39.328Z,100261.44
2023-04-25T06:40:06.461Z,100270.25
2023-04-25T06:42:33.750Z,100267.25
2023-04-25T06:45:00.496Z,100269.50
2023-04-25T06:47:27.309Z,100264.09
2023-04-25T06:49:53.812Z,100281.88
2023-04-25T06:52:20.613Z,100273.28
2023-04-25T06:54:53.326Z,100282.94
2023-04-25T06:57:20.640Z,100279.06
2023-04-25T06:59:48.997Z,100287.59
2023-04-25T07:02:15.581Z,100290.44
2023-04-25T07:04:43.001Z,100303.81
2023-04-25T07:07:09.751Z,100301.44
2023-04-25T07:09:38.846Z,100305.41
2023-04-25T07:12:06.851Z,100295.34
2023-04-25T07:14:36.106Z,100299.53
2023-04-25T07:17:03.069Z,100293.88
2023-04-25T07:19:30.992Z,100300.03
2023-04-25T07:21:57.560Z,100307.41
2023-04-25T07:24:24.578Z,100304.44
2023-04-25T07:26:51.938Z,100304.41
2023-04-25T07:29:19.008Z,100299.84
2023-04-25T07:31:45.605Z,100304.31
2023-04-25T07:34:13.054Z,100312.41
2023-04-25T07:36:39.830Z,100309.84
2023-04-25T07:39:06.533Z,100305.44
2023-04-25T07:41:33.489Z,100314.13
2023-04-25T07:44:00.603Z,100312.75
2023-04-25T07:46:27.455Z,100312.16
2023-04-25T07:48:54.200Z,100314.22
2023-04-25T07:51:23.049Z,100325.16
2023-04-25T07:53:50.699Z,100331.94
2023-04-25T07:56:17.847Z,100344.25
2023-04-25T07:58:44.449Z,100321.84
2023-04-25T08:01:12.760Z,100325.53
2023-04-25T08:03:40.136Z,100319.47
2023-04-25T08:06:08.284Z,100329.50
2023-04-25T08:08:35.325Z,100324.66
2023-04-25T08:11:03.318Z,100317.81
2023-04-25T08:13:29.784Z,100328.16
2023-04-25T08:15:58.331Z,100325.19
2023-04-25T08:18:24.939Z,100318.50
2023-04-25T08:20:52.784Z,100323.53
2023-04-25T08:23:21.285Z,100332.41
2023-04-25T08:25:47.974Z,100334.81
2023-04-25T08:28:17.399Z,100334.03
2023-04-25T08:30:44.929Z,100348.06
2023-04-25T08:33:15.755Z,100349.22
2023-04-25T08:35:46.440Z,100367.91
2023-04-25T08:38:20.227Z,100381.16
2023-04-25T08:41:00.339Z,100376.47
2023-04-25T08:43:30.698Z,100382.44
2023-04-25T08:46:02.385Z,100378.50
2023-04-25T08:48:32.042Z,100369.09
2023-04-25T08:50:59.554Z,100371.09
2023-04-25T08:53:28.479Z,100378.41
2023-04-25T08:55:57.072Z,100375.06
2023-04-25T08:58:24.648Z,100384.75
2023-04-25T09:00:57.377Z,100375.91
2023-04-25T09:03:24.055Z,100368.19
2023-04-25T09:05:51.224Z,100386.88
2023-04-25T09:08:18.346Z,100427.63
2023-04-25T09:10:45.632Z,100397.59
2023-04-25T09:13:20.577Z,100395.47
2023-04-25T09:15:55.829Z,100392.03
2023-04-25T09:18:29.846Z,100406.25
2023-04-25T09:21:01.952Z,100403.53
2023-04-25T09:23:31.304Z,100400.22
2023-04-25T09:25:58.475Z,100410.84
2023-04-25T09:28:30.858Z,100413.97
2023-04-25T09:30:58.514Z,100415.63
2023-04-25T09:33:33.570Z,100419.91
2023-04-25T09:36:09.531Z,100432.09
2023-04-25T09:38:43.165Z,100437.63
2023-04-25T09:41:11.785Z,100436.03
2023-04-25T09:43:40.851Z,100447.78
2023-04-25T09:46:12.495Z,100435.81
2023-04-25T09:48:39.073Z,100433.81
2023-04-25T09:51:07.064Z,100436.53
2023-04-25T09:53:39.254Z,100424.88
2023-04-25T09:56:07.865Z,100426.34
2023-04-25T09:58:35.680Z,100425.56
2023-04-25T10:01:10.848Z,100442.13
2023-04-25T10:03:39.066Z,100441.34
2023-04-25T10:06:09.068Z,100439.88
2023-04-25T10:08:37.156Z,100429.22
2023-04-25T10:11:15.476Z,100441.41
2023-04-25T10:13:43.129Z,100436.84
2023-04-25T10:16:13.182Z,100448.63
2023-04-25T10:18:45.284Z,100444.56
2023-04-25T10:21:15.296Z,100447.94
2023-04-25T10:23:45.436Z,100454.13
2023-04-25T10:26:14.524Z,100447.16
2023-04-25T10:28:57.347Z,100451.25
2023-04-25T10:31:26.936Z,100470.16
2023-04-25T10:33:54.460Z,100514.03
2023-04-25T10:36:22.527Z,100518.53
2023-04-25T10:38:51.552Z,100508.63
2023-04-25T10:41:22.657Z,100501.69
2023-04-25T10:43:51.681Z,100503.13
2023-04-25T10:46:32.315Z,100491.53
2023-04-25T10:49:00.649Z,100483.44
2023-04-25T10:51:37.159Z,100491.59
2023-04-25T10:54:16.842Z,100485.41
2023-04-25T10:56:46.239Z,100488.94
2023-04-25T10:59:17.323Z,100488.16
2023-04-25T11:01:48.355Z,100495.22
2023-04-25T11:04:28.327Z,100507.84
2023-04-25T11:07:16.486Z,100494.47
2023-04-25T11:09:43.482Z,100496.03
2023-04-25T11:12:17.931Z,100481.75
2023-04-25T11:14:45.152Z,100486.06
2023-04-25T11:17:15.868Z,100504.88
2023-04-25T11:19:42.667Z,100495.38
2023-04-25T11:22:16.435Z,100498.34
2023-04-25T11:24:43.917Z,100495.84
2023-04-25T11:27:12.470Z,100495.91
2023-04-25T11:29:40.448Z,100487.22
2023-04-25T11:32:12.077Z,100496.66
2023-04-25T11:34:38.758Z,100499.19
2023-04-25T11:37:07.686Z,100504.50
2023-04-25T11:39:35.149Z,100515.72
2023-04-25T11:42:03.728Z,100508.91
2023-04-25T11:44:33.314Z,100530.47
2023-04-25T11:47:00.069Z,100549.84
2023-04-25T11:49:32.406Z,100574.28
2023-04-25T11:51:59.676Z,100590.44
2023-04-25T11:54:27.619Z,100575.53
2023-04-25T11:56:54.609Z,100562.44
2023-04-25T11:59:29.197Z,100561.59
2023-04-25T12:01:56.110Z,100562.38
2023-04-25T12:04:24.546Z,100554.06
2023-04-25T12:06:54.362Z,100551.03
2023-04-25T12:09:29.196Z,100556.56
2023-04-25T12:11:57.174Z,100555.81
2023-04-25T12:14:31.234Z,100558.03
2023-04-25T12:17:00.810Z,100563.00
2023-04-25T12:19:28.047Z,100562.69
2023-04-25T12:21:59.277Z,100557.94
2023-04-25T12:24:28.718Z,100551.19
2023-04-25T12:27:05.143Z,100547.56
2023-04-25T12:29:41.844Z,100551.91
2023-04-25T12:32:16.469Z,100543.41
2023-04-25T12:34:43.135Z,100556.34
2023-04-25T12:37:14.038Z,100560.09
2023-04-25T12:39:41.623Z,100561.63
2023-04-25T12:42:12.850Z,100567.78
2023-04-25T12:44:41.617Z,100577.22
2023-04-25T12:47:08.812Z,100585.28
2023-04-25T12:49:39.806Z,100596.28
2023-04-25T12:52:09.533Z,100590.72
2023-04-25T12:54:39.675Z,100595.25
2023-04-25T12:57:06.995Z,100594.75
2023-04-25T12:59:33.597Z,100588.59
2023-04-25T13:02:02.871Z,100604.84
2023-04-25T13:04:31.241Z,100597.63
2023-04-25T13:06:59.268Z,100599.47
2023-04-25T13:09:26.827Z,100613.31
2023-04-25T13:12:02.724Z,100609.66
2023-04-25T13:14:31.666Z,100595.72
2023-04-25T13:17:05.877Z,100599.69
2023-04-25T13:19:38.057Z,100602.84
2023-04-25T13:22:20.870Z,100590.47
2023-04-25T13:24:49.299Z,100582.16
2023-04-25T13:27:16.649Z,100579.34
2023-04-25T13:29:44.206Z,100583.31
2023-04-25T13:32:11.471Z,100584.09
2023-04-25T13:34:38.788Z,100588.50
2023-04-25T13:37:06.291Z,100590.59
2023-04-25T13:39:33.375Z,100594.19
2023-04-25T13:42:07.725Z,100592.19
2023-04-25T13:44:34.512Z,100588.53
2023-04-25T13:47:02.039Z,100603.69
2023-04-25T13:49:31.916Z,100594.72
2023-04-25T13:51:58.580Z,100596.47
2023-04-25T13:54:26.891Z,100592.94
2023-04-25T13:56:56.246Z,100603.22
2023-04-25T13:59:22.970Z,100603.75
2023-04-25T14:01:51.313Z,100606.75
2023-04-25T14:04:18.042Z,100613.44
2023-04-25T14:06:45.142Z,100613.97
2023-04-25T14:09:13.671Z,100615.69
2023-04-25T14:11:40.764Z,100617.66
2023-04-25T14:14:08.457Z,100613.91
2023-04-25T14:16:35.767Z,100626.63
2023-04-25T14:19:02.948Z,100634.38
2023-04-25T14:21:32.687Z,100638.03
2023-04-25T14:23:59.905Z,100634.09
2023-04-25T14:26:27.014Z,100644.97
2023-04-25T14:28:54.048Z,100638.69
2023-04-25T14:31:21.326Z,100647.34
2023-04-25T14:33:48.068Z,100650.13
2023-04-25T14:36:16.270Z,100634.47
2023-04-25T14:38:43.414Z,100627.53
2023-04-25T14:41:10.376Z,100638.25
2023-04-25T14:43:43.256Z,100627.47
2023-04-25T14:46:12.195Z,100633.03
2023-04-25T14:48:39.192Z,100634.53
2023-04-25T14:51:07.791Z,100643.53
2023-04-25T14:53:34.741Z,100663.78
2023-04-25T14:56:03.298Z,100674.72
2023-04-25T14:58:31.171Z,100720.09
2023-04-25T15:00:59.267Z,100711.81
2023-04-25T15:03:27.872Z,100703.75
2023-04-25T15:05:57.718Z,100702.81
2023-04-25T15:08:25.740Z,100705.47
2023-04-25T15:10:52.485Z,100696.56
2023-04-25T15:13:20.379Z,100700.06
2023-04-25T15:15:52.408Z,100696.38
2023-04-25T15:18:23.892Z,100700.63
2023-04-25T15:20:53.761Z,100700.31
2023-04-25T15:23:21.500Z,100704.84
2023-04-25T15:25:48.819Z,100704.63
2023-04-25T15:28:17.390Z,100691.16
2023-04-25T15:30:46.867Z,100690.28
2023-04-25T15:33:15.795Z,100689.47
2023-04-25T15:35:43.261Z,100706.63
2023-04-25T15:38:12.961Z,100700.00
2023-04-25T15:40:40.375Z,100699.06
2023-04-25T15:43:07.919Z,100693.03
2023-04-25T15:45:35.891Z,100695.56
2023-04-25T15:48:02.828Z,100688.25
2023-04-25T15:50:29.921Z,100696.00
2023-04-25T15:52:59.557Z,100687.34
2023-04-25T15:55:31.049Z,100699.13
2023-04-25T15:57:58.269Z,100689.19
2023-04-25T16:00:25.997Z,100699.97
2023-04-25T16:02:52.953Z,100693.53
2023-04-25T16:05:22.836Z,100695.34
2023-04-25T16:07:50.206Z,100702.84
2023-04-25T16:10:24.763Z,100702.84
2023-04-25T16:12:54.905Z,100697.94
2023-04-25T16:15:21.706Z,100698.47
2023-04-25T16:17:48.636Z,100710.13
2023-04-25T16:20:18.214Z,100709.41
2023-04-25T16:22:47.338Z,100704.75
2023-04-25T16:25:16.185Z,100713.66
2023-04-25T16:27:49.808Z,100716.25
2023-04-25T16:30:16.863Z,100712.28
2023-04-25T16:32:45.649Z,100718.97
2023-04-25T16:35:13.043Z,100716.78
2023-04-25T16:37:39.449Z,100727.13
2023-04-25T16:40:10.014Z,100735.81
2023-04-25T16:42:38.266Z,100770.69
2023-04-25T16:45:05.480Z,100763.28
2023-04-25T16:47:32.603Z,100769.09
2023-04-25T16:50:00.262Z,100756.84
2023-04-25T16:52:27.091Z,100774.91
2023-04-25T16:54:55.308Z,100761.09
2023-04-25T16:57:26.641Z,100763.47
2023-04-25T16:59:55.177Z,100757.38
2023-04-25T17:02:25.394Z,100764.28
2023-04-25T17:04:52.470Z,100765.06
2023-04-25T17:07:24.228Z,100770.06
2023-04-25T17:10:11.973Z,100765.16
2023-04-25T17:12:40.054Z,100774.91
2023-04-25T17:15:08.615Z,100767.94
2023-04-25T17:17:36.321Z,100768.91
2023-04-25T17:20:06.184Z,100766.97
2023-04-25T17:22:40.876Z,100758.31
2023-04-25T17:25:16.932Z,100756.72
2023-04-25T17:27:45.015Z,100771.09
2023-04-25T17:30:17.584Z,100766.44
2023-04-25T17:32:45.088Z,100769.38
2023-04-25T17:35:18.968Z,100772.78
2023-04-25T17:37:48.673Z,100769.50
2023-04-25T17:40:18.088Z,100780.72
2023-04-25T17:42:48.285Z,100776.66
2023-04-25T17:45:15.114Z,100781.16
2023-04-25T17:47:45.995Z,100780.66
2023-04-25T17:50:17.470Z,100792.91
2023-04-25T17:52:45.534Z,100793.22
2023-04-25T17:55:12.387Z,100797.41
2023-04-25T17:57:39.192Z,100792.13
2023-04-25T18:00:09.428Z,100801.00
2023-04-25T18:02:42.227Z,100798.63
2023-04-25T18:05:15.779Z,100795.94
2023-04-25T18:07:42.928Z,100806.84
2023-04-25T18:10:11.726Z,100802.38
2023-04-25T18:12:43.088Z,100798.00
2023-04-25T18:15:11.538Z,100804.69
2023-04-25T18:17:41.768Z,100805.34
2023-04-25T18:20:15.228Z,100816.69
2023-04-25T18:22:45.052Z,100815.50
2023-04-25T18:25:13.891Z,100823.34
2023-04-25T18:27:41.578Z,100818.56
2023-04-25T18:30:11.743Z,100810.31
2023-04-25T18:32:41.201Z,100826.34
2023-04-25T18:35:10.271Z,100828.22
2023-04-25T18:37:37.290Z,100825.66
2023-04-25T18:40:07.052Z,100827.69
2023-04-25T18:42:33.689Z,100832.16
2023-04-25T18:45:02.460Z,100841.97
2023-04-25T18:47:29.584Z,100845.84
2023-04-25T18:49:57.252Z,100843.97
2023-04-25T18:52:29.917Z,100848.13
2023-04-25T18:54:56.844Z,100855.81
2023-04-25T18:57:23.867Z,100856.31
2023-04-25T18:59:52.695Z,100856.31
2023-04-25T19:02:20.544Z,100859.25
2023-04-25T19:04:47.598Z,100861.56
2023-04-25T19:07:16.894Z,100863.94
2023-04-25T19:09:46.584Z,100867.28
2023-04-25T19:12:13.743Z,100868.91
2023-04-25T19:14:44.021Z,100873.97
2023-04-25T19:17:13.961Z,100878.63
2023-04-25T19:19:41.209Z,100868.16
2023-04-25T19:22:11.775Z,100874.59
2023-04-25T19:24:44.687Z,100870.31
2023-04-25T19:27:18.384Z,100873.84
2023-04-25T19:29:57.713Z,100881.44
2023-04-25T19:32:29.653Z,100888.91
2023-04-25T19:34:56.996Z,100888.09
2023-04-25T19:37:26.797Z,100884.63
2023-04-25T19:39:57.631Z,100883.56
2023-04-25T19:42:30.410Z,100887.25
2023-04-25T19:45:03.547Z,100891.28
2023-04-25T19:47:33.463Z,100887.44
2023-04-25T19:50:09.263Z,100888.28
2023-04-25T19:52:40.132Z,100895.59
2023-04-25T19:55:08.309Z,100902.41
2023-04-25T19:57:39.464Z,100906.56
2023-04-25T20:00:14.467Z,100914.75
2023-04-25T20:02:53.744Z,100908.19
2023-04-25T20:05:24.442Z,100915.00
2023-04-25T20:07:54.031Z,100909.94
2023-04-25T20:10:32.390Z,100909.25
2023-04-25T20:13:05.772Z,100919.09
2023-04-25T20:15:37.952Z,100919.06
2023-04-25T20:18:09.313Z,100915.53
2023-04-25T20:20:36.937Z,100917.03
2023-04-25T20:23:08.587Z,100919.22
2023-04-25T20:25:35.935Z,100916.25
2023-04-25T20:28:05.682Z,100913.09
2023-04-25T20:30:40.412Z,100907.09
2023-04-25T20:33:12.841Z,100914.91
2023-04-25T20:35:50.436Z,100908.34
2023-04-25T20:38:23.471Z,100911.22
2023-04-25T20:40:54.058Z,100912.44
2023-04-25T20:43:27.086Z,100914.31
2023-04-25T20:45:58.590Z,100910.53
2023-04-25T20:48:30.928Z,100908.16
2023-04-25T20:51:11.854Z,100939.53
2023-04-25T20:53:42.510Z,100911.00
2023-04-25T20:56:14.402Z,100915.50
2023-04-25T20:58:42.821Z,100913.75
2023-04-25T21:01:09.602Z,100916.94
2023-04-25T21:03:36.875Z,100914.16
2023-04-25T21:06:07.939Z,100915.31
2023-04-25T21:08:35.703Z,100920.97
2023-04-25T21:11:03.712Z,100924.91
2023-04-25T21:13:31.979Z,100921.81
2023-04-25T21:15:59.854Z,100927.59
2023-04-25T21:18:32.288Z,100915.25
2023-04-25T21:20:59.229Z,100927.19
2023-04-25T21:23:32.545Z,100929.47
2023-04-25T21:26:00.035Z,100931.31
2023-04-25T21:28:27.351Z,100926.66
2023-04-25T21:30:56.771Z,100927.16
2023-04-25T21:33:23.580Z,100921.47
2023-04-25T21:35:50.504Z,100920.84
2023-04-25T21:38:19.645Z,100923.53
2023-04-25T21:40:46.849Z,100928.31
2023-04-25T21:43:14.341Z,100930.53
2023-04-25T21:46:02.141Z,100935.00
2023-04-25T21:48:28.320Z,100925.97
2023-04-25T21:50:56.234Z,100922.28
2023-04-25T21:53:23.618Z,100918.81
2023-04-25T21:55:50.883Z,100925.75
2023-04-25T21:58:19.752Z,100922.81
2023-04-25T22:00:49.990Z,100928.25
2023-04-25T22:03:20.174Z,100925.22
2023-04-25T22:05:51.007Z,100930.78
2023-04-25T22:08:18.794Z,100854.56
2023-04-25T22:10:47.966Z,100935.53
2023-04-25T22:13:16.227Z,100937.59
2023-04-25T22:15:42.999Z,100936.66
2023-04-25T22:18:10.339Z,100934.94
2023-04-25T22:20:37.249Z,100934.19
2023-04-25T22:23:04.198Z,100931.34
2023-04-25T22:25:31.884Z,100939.16
2023-04-25T22:28:00.334Z,100941.34
2023-04-25T22:30:32.678Z,100942.78
2023-04-25T22:32:59.468Z,100949.72
2023-04-25T22:35:26.823Z,100947.25
2023-04-25T22:37:53.890Z,100949.19
2023-04-25T22:40:22.479Z,100958.16
2023-04-25T22:42:50.178Z,100955.41
2023-04-25T22:45:17.398Z,100959.59
2023-04-25T22:47:45.964Z,100953.56
2023-04-25T22:50:13.957Z,100958.56
2023-04-25T22:52:42.594Z,100967.84
2023-04-25T22:55:11.097Z,100962.94
2023-04-25T22:57:38.977Z,100962.22
2023-04-25T23:00:10.915Z,100968.22
2023-04-25T23:02:40.786Z,100964.22
2023-04-25T23:05:08.379Z,100967.75
2023-04-25T23:07:38.332Z,100962.53
2023-04-25T23:10:09.020Z,100974.81
2023-04-25T23:12:36.460Z,100977.00
2023-04-25T23:15:05.418Z,100974.50
2023-04-25T23:17:35.535Z,100979.13
2023-04-25T23:20:05.294Z,100969.94
2023-04-25T23:22:36.620Z,100977.31
2023-04-25T23:25:04.041Z,100979.34
2023-04-25T23:27:33.501Z,100985.78
2023-04-25T23:30:06.258Z,100990.41
2023-04-25T23:32:35.468Z,100990.72
2023-04-25T23:35:02.530Z,100988.66
2023-04-25T23:37:32.129Z,100988.75
2023-04-25T23:39:59.055Z,100982.44
2023-04-25T23:42:29.429Z,100984.78
2023-04-25T23:44:56.331Z,100978.16
2023-04-25T23:47:29.624Z,100987.97
2023-04-25T23:49:56.932Z,100984.75
2023-04-25T23:52:23.760Z,100986.63
2023-04-25T23:54:54.562Z,100991.13
2023-04-25T23:57:23.510Z,100991.38
2023-04-25T23:59:53.556Z,100987.97
